createdAt,value
2019-05-19T00:03:16.232Z,18.18
2019-05-19T00:08:22.195Z,10.46
2019-05-19T00:13:28.224Z,13.44
2019-05-19T00:18:34.251Z,11.99
2019-05-19T00:23:40.281Z,10.77
2019-05-19T00:28:46.326Z,7.71
2019-05-19T00:33:52.444Z,12.63
2019-05-19T00:38:58.449Z,7.24
2019-05-19T00:44:04.438Z,7.25
2019-05-19T00:49:10.425Z,13.12
2019-05-19T00:54:16.630Z,14.38
2019-05-19T00:59:22.652Z,7.40
2019-05-19T01:04:28.701Z,6.91
2019-05-19T01:09:34.778Z,7.16
2019-05-19T01:14:40.850Z,6.44
2019-05-19T01:19:55.601Z,14.89
2019-05-19T01:24:52.474Z,6.92
2019-05-19T01:29:58.597Z,7.14
2019-05-19T01:35:04.601Z,8.03
2019-05-19T01:40:10.684Z,6.59
2019-05-19T01:45:16.677Z,12.32
2019-05-19T01:50:22.663Z,7.23
2019-05-19T01:55:28.653Z,8.27
2019-05-19T02:00:34.645Z,9.80
2019-05-19T02:05:40.635Z,9.30
2019-05-19T02:10:49.046Z,10.79
2019-05-19T02:15:55.079Z,10.17
2019-05-19T02:21:01.137Z,6.55
2019-05-19T02:26:07.196Z,5.97
2019-05-19T02:31:13.318Z,10.85
2019-05-19T02:36:19.346Z,5.25
2019-05-19T02:41:25.423Z,9.77
2019-05-19T02:46:31.525Z,10.09
2019-05-19T02:51:37.627Z,5.11
2019-05-19T02:56:43.649Z,6.85
2019-05-19T03:01:49.664Z,9.69
2019-05-19T03:06:55.697Z,6.30
2019-05-19T03:12:01.716Z,10.40
2019-05-19T03:17:07.763Z,5.76
2019-05-19T03:22:13.740Z,5.89
2019-05-19T03:27:19.799Z,6.21
2019-05-19T03:32:25.831Z,6.74
2019-05-19T03:37:31.879Z,13.84
2019-05-19T03:42:37.857Z,9.74
2019-05-19T03:47:43.975Z,9.52
2019-05-19T03:52:50.036Z,9.47
2019-05-19T03:57:56.039Z,16.57
2019-05-19T04:03:02.140Z,8.67
2019-05-19T04:08:08.154Z,7.76
2019-05-19T04:13:14.352Z,13.70
2019-05-19T04:18:20.312Z,7.96
2019-05-19T04:23:26.335Z,14.18
2019-05-19T04:28:32.360Z,7.54
2019-05-19T04:33:38.385Z,18.89
2019-05-19T04:38:44.436Z,9.58
2019-05-19T04:43:50.570Z,9.83
2019-05-19T04:48:56.662Z,10.04
2019-05-19T04:54:02.680Z,10.13
2019-05-19T04:59:09.043Z,9.25
2019-05-19T05:04:15.058Z,9.78
2019-05-19T05:09:21.127Z,9.00
2019-05-19T05:14:27.112Z,9.01
2019-05-19T05:19:33.148Z,10.05
2019-05-19T05:24:39.152Z,10.13
2019-05-19T05:29:45.174Z,10.57
2019-05-19T05:34:51.288Z,19.25
2019-05-19T05:39:57.290Z,10.76
2019-05-19T05:45:03.294Z,11.17
2019-05-19T05:50:09.426Z,20.85
2019-05-19T05:55:15.419Z,11.21
2019-05-19T06:00:21.440Z,10.53
2019-05-19T06:05:27.441Z,20.27
2019-05-19T06:10:33.473Z,10.94
2019-05-19T06:15:39.632Z,19.26
2019-05-19T06:20:45.664Z,18.16
2019-05-19T06:25:51.718Z,10.34
2019-05-19T06:30:57.826Z,9.82
2019-05-19T06:36:03.926Z,9.81
2019-05-19T06:41:09.956Z,10.22
2019-05-19T06:46:16.204Z,10.14
2019-05-19T06:51:22.209Z,17.73
2019-05-19T06:56:28.201Z,9.40
2019-05-19T07:01:34.367Z,9.56
2019-05-19T07:06:40.504Z,18.22
2019-05-19T07:11:47.744Z,19.04
2019-05-19T07:16:53.776Z,11.01
2019-05-19T07:21:59.821Z,21.21
2019-05-19T07:27:05.866Z,11.71
2019-05-19T07:32:11.908Z,12.25
2019-05-19T07:37:18.019Z,23.09
2019-05-19T07:42:24.146Z,12.60
2019-05-19T07:47:30.209Z,13.32
2019-05-19T07:52:36.275Z,13.00
2019-05-19T07:57:42.322Z,13.06
2019-05-19T08:02:48.332Z,12.73
2019-05-19T08:07:54.471Z,12.93
2019-05-19T08:13:00.464Z,12.79
2019-05-19T08:18:06.939Z,12.56
2019-05-19T08:23:13.039Z,12.49
2019-05-19T08:28:19.054Z,13.00
2019-05-19T08:33:25.144Z,24.12
2019-05-19T08:38:31.221Z,26.31
2019-05-19T08:43:37.234Z,14.31
2019-05-19T08:48:43.417Z,14.42
2019-05-19T08:53:49.702Z,14.86
2019-05-19T08:58:55.859Z,14.14
2019-05-19T09:04:01.870Z,14.68
2019-05-19T09:09:08.023Z,13.76
2019-05-19T09:14:14.085Z,13.99
2019-05-19T09:19:20.190Z,12.98
2019-05-19T09:24:30.442Z,12.82
2019-05-19T09:29:32.272Z,14.77
2019-05-19T09:34:38.431Z,27.37
2019-05-19T09:39:44.589Z,13.59
2019-05-19T09:44:50.661Z,13.31
2019-05-19T09:49:56.646Z,13.41
2019-05-19T09:55:02.665Z,14.60
2019-05-19T10:00:08.729Z,27.20
2019-05-19T10:05:14.839Z,28.10
2019-05-19T10:10:21.063Z,14.81
2019-05-19T10:15:27.179Z,15.99
2019-05-19T10:20:33.847Z,14.71
2019-05-19T10:25:39.861Z,28.57
2019-05-19T10:30:46.007Z,15.71
2019-05-19T10:35:55.056Z,28.02
2019-05-19T10:41:01.043Z,29.08
2019-05-19T10:46:07.120Z,30.75
2019-05-19T10:51:13.140Z,16.75
2019-05-19T10:56:19.279Z,30.24
2019-05-19T11:01:25.210Z,27.08
2019-05-19T11:06:31.223Z,14.30
2019-05-19T11:11:37.246Z,15.58
2019-05-19T11:16:44.573Z,14.43
2019-05-19T11:21:50.476Z,11.79
2019-05-19T11:26:56.882Z,10.77
2019-05-19T11:32:02.903Z,9.99
2019-05-19T11:37:08.922Z,10.16
2019-05-19T11:42:15.022Z,10.26
2019-05-19T11:47:21.056Z,19.78
2019-05-19T11:52:27.076Z,9.66
2019-05-19T11:57:33.109Z,12.68
2019-05-19T12:02:39.327Z,12.02
2019-05-19T12:07:45.395Z,20.90
2019-05-19T12:12:51.477Z,17.42
2019-05-19T12:17:57.508Z,16.31
2019-05-19T12:23:03.591Z,17.45
2019-05-19T12:28:09.793Z,9.10
2019-05-19T12:33:15.901Z,9.16
2019-05-19T12:38:21.953Z,9.06
2019-05-19T12:43:28.056Z,13.98
2019-05-19T12:48:34.146Z,8.45
2019-05-19T12:53:40.254Z,7.75
2019-05-19T12:58:46.299Z,8.07
2019-05-19T13:03:52.333Z,6.35
2019-05-19T13:08:58.405Z,12.12
2019-05-19T13:14:04.511Z,9.47
2019-05-19T13:19:10.684Z,2.86
2019-05-19T13:24:16.701Z,1.62
2019-05-19T13:29:22.724Z,1.61
2019-05-19T13:34:28.778Z,2.54
2019-05-19T13:39:34.784Z,2.01
2019-05-19T13:44:40.808Z,1.10
2019-05-19T13:49:47.145Z,1.19
2019-05-19T13:54:53.198Z,0.94
2019-05-19T13:59:59.208Z,1.57
2019-05-19T14:05:05.266Z,1.00
2019-05-19T14:10:11.317Z,0.80
2019-05-19T14:15:17.362Z,1.56
2019-05-19T14:20:23.384Z,1.01
2019-05-19T14:25:29.430Z,0.96
2019-05-19T14:30:35.525Z,1.00
2019-05-19T14:35:41.507Z,2.32
2019-05-19T14:40:47.606Z,1.55
2019-05-19T14:45:53.761Z,2.66
2019-05-19T14:50:59.726Z,2.88
2019-05-19T14:56:05.734Z,4.05
2019-05-19T15:01:11.744Z,1.10
2019-05-19T15:06:17.749Z,1.16
2019-05-19T15:11:23.802Z,3.04
2019-05-19T15:16:29.834Z,2.68
2019-05-19T15:21:35.911Z,1.88
2019-05-19T15:26:41.925Z,1.53
2019-05-19T15:31:47.911Z,1.01
2019-05-19T15:36:54.062Z,1.48
2019-05-19T15:42:00.167Z,1.30
2019-05-19T15:47:06.178Z,0.97
2019-05-19T15:52:12.279Z,0.99
2019-05-19T15:57:18.424Z,0.92
2019-05-19T16:02:24.513Z,2.37
2019-05-19T16:07:30.610Z,1.35
2019-05-19T16:12:36.646Z,1.00
2019-05-19T16:17:42.689Z,2.21
2019-05-19T16:22:48.683Z,1.09
2019-05-19T16:27:54.711Z,1.67
2019-05-19T16:33:00.788Z,1.17
2019-05-19T16:38:06.823Z,1.09
2019-05-19T16:43:12.912Z,1.17
2019-05-19T16:48:19.088Z,1.59
2019-05-19T16:53:25.249Z,3.67
2019-05-19T16:58:44.397Z,1.48
2019-05-19T17:03:36.875Z,1.80
2019-05-19T17:08:44.274Z,3.87
2019-05-19T17:13:50.173Z,3.65
2019-05-19T17:18:56.206Z,1.20
2019-05-19T17:24:02.310Z,1.26
2019-05-19T17:29:08.431Z,1.64
2019-05-19T17:34:14.486Z,1.57
2019-05-19T17:39:20.626Z,2.02
2019-05-19T17:44:26.630Z,2.30
2019-05-19T17:49:32.896Z,2.25
2019-05-19T17:54:38.948Z,3.69
2019-05-19T17:59:45.071Z,1.92
2019-05-19T18:04:51.176Z,2.43
2019-05-19T18:09:57.272Z,2.20
2019-05-19T18:15:03.531Z,4.77
2019-05-19T18:20:22.975Z,1.97
2019-05-19T18:25:15.004Z,1.89
2019-05-19T18:30:21.037Z,3.96
2019-05-19T18:35:27.232Z,1.74
2019-05-19T18:40:33.297Z,2.11
2019-05-19T18:45:39.461Z,2.41
2019-05-19T18:50:45.859Z,2.44
2019-05-19T18:55:51.989Z,2.63
2019-05-19T19:00:58.306Z,3.05
2019-05-19T19:06:04.498Z,2.85
2019-05-19T19:11:10.665Z,2.88
2019-05-19T19:16:16.835Z,3.87
2019-05-19T19:21:22.901Z,3.14
2019-05-19T19:26:28.994Z,3.43
2019-05-19T19:31:47.757Z,3.42
2019-05-19T19:36:40.724Z,3.43
2019-05-19T19:41:49.998Z,3.48
2019-05-19T19:46:56.183Z,3.33
2019-05-19T19:52:02.307Z,3.17
2019-05-19T19:57:08.316Z,3.64
2019-05-19T20:02:14.558Z,3.45
2019-05-19T20:07:20.677Z,3.13
2019-05-19T20:12:26.735Z,3.72
2019-05-19T20:17:32.770Z,5.70
2019-05-19T20:22:38.784Z,9.07
2019-05-19T20:27:44.826Z,4.00
2019-05-19T20:32:50.878Z,8.84
2019-05-19T20:37:56.890Z,5.82
2019-05-19T20:43:03.044Z,5.79
2019-05-19T20:48:09.082Z,8.56
2019-05-19T20:53:15.138Z,5.50
2019-05-19T20:58:21.305Z,4.61
2019-05-19T21:03:27.470Z,5.05
2019-05-19T21:08:33.538Z,5.07
2019-05-19T21:13:39.533Z,9.41
2019-05-19T21:18:45.582Z,6.22
2019-05-19T21:23:51.688Z,10.46
2019-05-19T21:28:57.787Z,7.01
2019-05-19T21:34:03.948Z,5.55
2019-05-19T21:39:09.969Z,5.71
2019-05-19T21:44:16.052Z,6.16
2019-05-19T21:49:22.151Z,11.02
2019-05-19T21:54:28.291Z,7.12
2019-05-19T21:59:34.487Z,6.57
2019-05-19T22:04:40.556Z,7.07
2019-05-19T22:09:46.633Z,10.68
2019-05-19T22:14:52.707Z,10.97
2019-05-19T22:19:58.817Z,7.51
2019-05-19T22:25:04.940Z,6.95
2019-05-19T22:30:11.033Z,7.15
2019-05-19T22:35:17.119Z,8.84
2019-05-19T22:40:23.149Z,13.61
2019-05-19T22:45:29.243Z,7.57
2019-05-19T22:50:35.341Z,7.51
2019-05-19T22:55:41.380Z,7.93
2019-05-19T23:00:47.454Z,6.80
2019-05-19T23:05:53.513Z,6.25
2019-05-19T23:10:59.589Z,5.86
2019-05-19T23:16:05.627Z,5.94
2019-05-19T23:21:11.652Z,10.46
2019-05-19T23:26:17.692Z,7.85
2019-05-19T23:31:24.136Z,7.84
2019-05-19T23:36:30.154Z,8.26
2019-05-19T23:41:36.640Z,8.27
2019-05-19T23:46:42.667Z,6.25
2019-05-19T23:51:48.653Z,6.92
2019-05-19T23:56:54.676Z,6.99
